Saturday, September 22, 2018, 9:03 AM EDT
Back to Local

KBED, Bedford Hanscom Field

Location: Concord, MA, United States Lat: 42.467
Local Time: 9:03 AM EDT (13:03 GMT) Lon: -71.3
Time Zone: US/Eastern Elev: 134 ft

Show me the last for .
Show Decoded

2018-09-22 07:56 METAR KBED 221156Z 28010G18KT 10SM CLR 21/11 A2996 RMK AO2 SLP155 60000
                 T02060111 10217 20200 53038 =
2018-09-22 06:56 METAR KBED 221056Z 28013G26KT 10SM CLR 21/12 A2991 RMK AO2 PK WND 29026/1052
                 SLP140 T02110122 =
2018-09-22 05:56 METAR KBED 220956Z AUTO 24005KT 10SM CLR 21/18 A2987 RMK AO2 SLP125 T02060183 =
2018-09-22 05:25 METAR KBED 220925Z AUTO 23007KT 10SM FEW012 FEW018 SCT095 21/18 A2985 RMK AO2
                 T02060183 =
2018-09-22 05:18 METAR KBED 220918Z AUTO 24008KT 10SM SCT015 BKN021 BKN095 21/18 A2985 RMK AO2
                 T02060183 =
2018-09-22 04:56 METAR KBED 220856Z AUTO 23006KT 10SM BKN013 OVC020 21/18 A2984 RMK AO2 SLP116
                 60000 T02060183 51018 =
2018-09-22 04:25 METAR KBED 220825Z AUTO 23010KT 10SM BKN013 OVC080 21/18 A2983 RMK AO2 T02060183
                 =
2018-09-22 03:56 METAR KBED 220756Z AUTO 22012KT 10SM SCT014 BKN060 BKN095 21/18 A2983 RMK AO2
                 RAE37 SLP111 P0000 T02060183 =
2018-09-22 03:52 METAR KBED 220752Z AUTO 22011G18KT 10SM SCT014 BKN060 BKN095 21/18 A2983 RMK AO2
                 RAE37 P0000 =
2018-09-22 03:42 METAR KBED 220742Z AUTO 22010KT 10SM BKN015 BKN037 21/18 A2983 RMK AO2 RAE37
                 P0000 T02060183 =
2018-09-22 03:31 METAR KBED 220731Z AUTO 21011KT 10SM -RA BKN014 OVC037 21/18 A2983 RMK AO2 P0000
                 T02060183 =
2018-09-22 03:21 METAR KBED 220721Z AUTO 22010G16KT 10SM -RA BKN016 BKN038 BKN120 21/18 A2984 RMK
                 AO2 P0000 T02060183 =
2018-09-22 02:56 METAR KBED 220656Z AUTO 19019G27KT 10SM -RA FEW020 SCT090 BKN120 21/18 A2979 RMK
                 AO2 PK WND 20027/0651 RAB35 PRESFR SLP099 P0000 T02060178 =
2018-09-22 02:52 METAR KBED 220652Z AUTO 20018G27KT 10SM -RA SCT020 BKN090 21/18 A2980 RMK AO2 PK
                 WND 20027/0651 RAB35 PRESFR P0000 =
2018-09-22 01:56 METAR KBED 220556Z AUTO 22015G24KT 10SM OVC021 22/17 A2986 RMK AO2 PK WND
                 20027/0517 SLP120 T02170167 10217 20183 56023 =
2018-09-22 00:56 METAR KBED 220456Z AUTO 21015G25KT 10SM OVC026 21/16 A2986 RMK AO2 SLP121
                 T02110161 402220133 =
2018-09-22 00:32 METAR KBED 220432Z AUTO 20014G24KT 10SM BKN028 OVC035 21/16 A2987 RMK AO2
                 T02060161 =
2018-09-21 23:56 METAR KBED 220356Z AUTO 21014G20KT 10SM OVC034 20/16 A2990 RMK AO2 PK WND
                 21027/0307 SLP135 T02000161 =
2018-09-21 22:56 METAR KBED 220256Z AUTO 20015G22KT 10SM OVC032 20/16 A2992 RMK AO2 SLP144
                 T02000156 56017 =
2018-09-21 21:56 METAR KBED 220156Z 20014G18KT 10SM OVC033 19/16 A2994 RMK AO2 SLP151 T01940156 =
2018-09-21 20:56 METAR KBED 220056Z 19014G21KT 10SM OVC035 19/14 A2995 RMK AO2 SLP154 T01890144 =
2018-09-21 19:56 METAR KBED 212356Z 19014KT 10SM BKN036 OVC046 18/14 A2997 RMK AO2 RAB05E20
                 SLP162 P0000 60000 T01830139 10222 20183 56028 =
2018-09-21 18:56 METAR KBED 212256Z 20010KT 10SM SCT035 BKN050 18/13 A3000 RMK AO2 SLP172
                 T01830133 =
2018-09-21 17:56 METAR KBED 212156Z 19010KT 10SM SCT032 OVC044 19/13 A3003 RMK AO2 SLP180
                 T01940133 =
2018-09-21 16:56 METAR KBED 212056Z 19008KT 10SM FEW030 OVC044 19/13 A3006 RMK AO2 SLP191
                 T01940133 56028 =
2018-09-21 15:56 METAR KBED 211956Z 18011KT 10SM SCT032 OVC047 21/13 A3008 RMK AO2 SLP198
                 T02060133 =
2018-09-21 14:56 METAR KBED 211856Z 19009KT 10SM BKN046 BKN200 21/13 A3011 RMK AO2 SLP208
                 T02110133 =
2018-09-21 13:56 METAR KBED 211756Z 17010KT 10SM BKN033 BKN046 OVC055 21/13 A3014 RMK AO2 SLP218
                 T02110128 10217 20150 57031 =
2018-09-21 12:56 METAR KBED 211656Z 15009G16KT 10SM BKN060 22/12 A3017 RMK AO2 SLP228 T02170122 =
2018-09-21 11:56 METAR KBED 211556Z 14008KT 10SM FEW044 20/11 A3020 RMK AO2 SLP239 T02000111 =
2018-09-21 10:56 METAR KBED 211456Z 17010KT 10SM SCT050 19/11 A3023 RMK AO2 SLP249 T01940106
                 58021 =
2018-09-21 09:56 METAR KBED 211356Z 15011G15KT 10SM OVC055 18/10 A3027 RMK AO2 SLP261 T01830100 =

Support USWX by starting your Amazon purchase here.